createdAt,value
2018-09-10T00:01:04.923Z,99.90
2018-09-10T00:03:33.473Z,99.90
2018-09-10T00:06:02.079Z,99.90
2018-09-10T00:08:30.793Z,99.90
2018-09-10T00:10:59.356Z,99.90
2018-09-10T00:13:28.103Z,99.90
2018-09-10T00:15:56.638Z,99.90
2018-09-10T00:18:25.209Z,99.90
2018-09-10T00:20:53.812Z,99.90
2018-09-10T00:23:22.318Z,99.90
2018-09-10T00:25:51.514Z,99.90
2018-09-10T00:28:20.047Z,99.90
2018-09-10T00:30:49.170Z,99.90
2018-09-10T00:33:17.735Z,99.90
2018-09-10T00:35:46.249Z,99.90
2018-09-10T00:38:14.802Z,99.90
2018-09-10T00:40:43.325Z,99.90
2018-09-10T00:43:11.851Z,99.90
2018-09-10T00:45:40.363Z,99.90
2018-09-10T00:48:09.328Z,99.90
2018-09-10T00:50:37.867Z,99.90
2018-09-10T00:53:06.366Z,99.90
2018-09-10T00:55:34.992Z,99.90
2018-09-10T00:58:03.684Z,99.90
2018-09-10T01:00:32.259Z,99.90
2018-09-10T01:03:01.017Z,99.90
2018-09-10T01:05:29.645Z,99.90
2018-09-10T01:07:58.328Z,99.90
2018-09-10T01:10:26.997Z,99.90
2018-09-10T01:12:55.785Z,99.90
2018-09-10T01:15:24.366Z,99.90
2018-09-10T01:17:52.967Z,99.90
2018-09-10T01:20:21.545Z,99.90
2018-09-10T01:22:50.113Z,99.90
2018-09-10T01:25:18.686Z,99.90
2018-09-10T01:27:47.246Z,99.90
2018-09-10T01:30:15.843Z,99.90
2018-09-10T01:32:44.408Z,99.90
2018-09-10T01:35:12.980Z,99.90
2018-09-10T01:37:41.577Z,99.90
2018-09-10T01:40:10.134Z,99.90
2018-09-10T01:42:38.642Z,99.90
2018-09-10T01:45:07.280Z,99.90
2018-09-10T01:47:35.910Z,99.90
2018-09-10T01:50:04.467Z,99.90
2018-09-10T01:52:33.029Z,99.90
2018-09-10T01:55:01.574Z,99.90
2018-09-10T01:57:30.076Z,99.90
2018-09-10T01:59:58.656Z,99.90
2018-09-10T02:02:27.261Z,99.90
2018-09-10T02:04:56.397Z,99.90
2018-09-10T02:07:24.942Z,99.90
2018-09-10T02:09:53.504Z,99.90
2018-09-10T02:12:23.928Z,99.90
2018-09-10T02:14:52.905Z,99.90
2018-09-10T02:17:21.869Z,99.90
2018-09-10T02:19:50.787Z,99.90
2018-09-10T02:22:19.415Z,99.90
2018-09-10T02:24:47.939Z,99.90
2018-09-10T02:27:16.974Z,99.90
2018-09-10T02:29:45.655Z,99.90
2018-09-10T02:32:14.371Z,99.90
2018-09-10T02:34:42.965Z,99.90
2018-09-10T02:37:11.538Z,99.90
2018-09-10T02:39:40.206Z,99.90
2018-09-10T02:42:08.786Z,99.90
2018-09-10T02:44:37.343Z,99.90
2018-09-10T02:47:06.263Z,99.90
2018-09-10T02:49:34.908Z,99.90
2018-09-10T02:52:03.463Z,99.90
2018-09-10T02:54:32.030Z,99.90
2018-09-10T02:57:00.773Z,99.90
2018-09-10T02:59:29.441Z,99.90
2018-09-10T03:01:57.971Z,99.90
2018-09-10T03:04:26.584Z,99.90
2018-09-10T03:06:55.136Z,99.90
2018-09-10T03:09:23.682Z,99.90
2018-09-10T03:11:52.175Z,99.90
2018-09-10T03:14:20.817Z,99.90
2018-09-10T03:16:49.336Z,99.90
2018-09-10T03:19:17.965Z,99.90
2018-09-10T03:21:46.504Z,99.90
2018-09-10T03:24:15.141Z,99.90
2018-09-10T03:26:43.646Z,99.90
2018-09-10T03:29:12.198Z,99.90
2018-09-10T03:31:41.284Z,99.90
2018-09-10T03:34:09.819Z,99.90
2018-09-10T03:36:38.334Z,99.90
2018-09-10T03:39:08.353Z,99.90
2018-09-10T03:41:36.863Z,99.90
2018-09-10T03:44:05.438Z,99.90
2018-09-10T03:46:33.979Z,99.90
2018-09-10T03:49:02.524Z,99.90
2018-09-10T03:51:31.034Z,99.90
2018-09-10T03:53:59.602Z,99.90
2018-09-10T03:56:28.120Z,99.90
2018-09-10T03:58:56.703Z,99.90
2018-09-10T04:01:25.318Z,99.90
2018-09-10T04:03:53.905Z,99.90
2018-09-10T04:06:22.623Z,99.90
2018-09-10T04:08:51.187Z,99.90
2018-09-10T04:11:19.639Z,99.90
2018-09-10T04:13:48.172Z,99.90
2018-09-10T04:16:16.734Z,99.90
2018-09-10T04:18:46.376Z,99.90
2018-09-10T04:21:15.068Z,99.90
2018-09-10T04:23:44.340Z,99.90
2018-09-10T04:26:13.029Z,99.90
2018-09-10T04:28:41.660Z,99.90
2018-09-10T04:31:12.044Z,99.90
2018-09-10T04:33:40.759Z,99.90
2018-09-10T04:36:09.485Z,99.90
2018-09-10T04:38:38.753Z,99.90
2018-09-10T04:41:08.000Z,99.90
2018-09-10T04:43:36.881Z,99.90
2018-09-10T04:46:06.247Z,99.90
2018-09-10T04:48:35.344Z,99.90
2018-09-10T04:51:04.390Z,99.90
2018-09-10T04:53:33.344Z,99.90
2018-09-10T04:56:02.365Z,99.90
2018-09-10T04:58:31.306Z,99.90
2018-09-10T05:01:00.706Z,99.90
2018-09-10T05:03:29.741Z,99.90
2018-09-10T05:05:59.588Z,99.90
2018-09-10T05:08:28.655Z,99.90
2018-09-10T05:10:57.709Z,99.90
2018-09-10T05:13:26.710Z,99.90
2018-09-10T05:15:55.545Z,99.90
2018-09-10T05:18:24.450Z,99.90
2018-09-10T05:20:53.591Z,99.90
2018-09-10T05:23:22.618Z,99.90
2018-09-10T05:25:51.722Z,99.90
2018-09-10T05:28:20.823Z,99.90
2018-09-10T05:30:49.761Z,99.90
2018-09-10T05:33:19.044Z,99.90
2018-09-10T05:35:48.022Z,99.90
2018-09-10T05:38:17.047Z,99.90
2018-09-10T05:40:46.228Z,99.90
2018-09-10T05:43:15.218Z,99.90
2018-09-10T05:45:44.217Z,99.90
2018-09-10T05:48:13.214Z,99.90
2018-09-10T05:50:42.372Z,99.90
2018-09-10T05:53:11.425Z,99.90
2018-09-10T05:55:40.537Z,99.90
2018-09-10T05:58:09.479Z,99.90
2018-09-10T06:00:38.518Z,99.90
2018-09-10T06:03:07.755Z,99.90
2018-09-10T06:05:36.858Z,99.90
2018-09-10T06:08:05.991Z,99.90
2018-09-10T06:10:35.243Z,99.90
2018-09-10T06:13:04.431Z,99.90
2018-09-10T06:15:33.584Z,99.90
2018-09-10T06:18:02.517Z,99.90
2018-09-10T06:20:32.960Z,99.90
2018-09-10T06:23:02.039Z,99.90
2018-09-10T06:25:31.398Z,99.90
2018-09-10T06:28:01.476Z,99.90
2018-09-10T06:30:30.548Z,99.90
2018-09-10T06:32:59.369Z,99.90
2018-09-10T06:35:31.638Z,99.90
2018-09-10T06:38:00.458Z,99.90
2018-09-10T06:40:29.554Z,99.90
2018-09-10T06:42:58.719Z,99.90
2018-09-10T06:45:27.744Z,99.90
2018-09-10T06:47:56.744Z,99.90
2018-09-10T06:50:25.528Z,99.90
2018-09-10T06:52:54.536Z,99.90
2018-09-10T06:55:24.425Z,99.90
2018-09-10T06:57:53.346Z,99.90
2018-09-10T07:00:22.550Z,99.90
2018-09-10T07:05:26.960Z,99.90
2018-09-10T07:08:01.280Z,99.90
2018-09-10T07:10:34.729Z,99.90
2018-09-10T07:13:03.796Z,99.90
2018-09-10T07:15:33.026Z,99.90
2018-09-10T07:18:01.983Z,99.90
2018-09-10T07:20:30.954Z,99.90
2018-09-10T07:23:00.000Z,99.90
2018-09-10T07:25:29.076Z,99.90
2018-09-10T07:27:58.310Z,99.20
2018-09-10T07:30:27.916Z,96.50
2018-09-10T07:32:58.070Z,95.40
2018-09-10T07:35:27.233Z,93.10
2018-09-10T07:37:56.472Z,92.50
2018-09-10T07:40:25.738Z,92.30
2018-09-10T07:42:54.964Z,90.70
2018-09-10T07:45:25.493Z,87.40
2018-09-10T07:47:54.690Z,85.10
2018-09-10T07:50:27.164Z,90.00
2018-09-10T07:52:56.432Z,87.50
2018-09-10T07:55:27.613Z,82.80
2018-09-10T07:57:56.769Z,79.90
2018-09-10T08:00:26.015Z,79.80
2018-09-10T08:02:56.260Z,75.70
2018-09-10T08:05:25.697Z,75.50
2018-09-10T08:07:54.874Z,73.40
2018-09-10T08:10:26.994Z,72.60
2018-09-10T08:12:58.034Z,70.60
2018-09-10T08:15:27.315Z,69.20
2018-09-10T08:17:56.839Z,71.20
2018-09-10T08:20:26.242Z,70.20
2018-09-10T08:22:55.502Z,69.70
2018-09-10T08:25:25.821Z,68.20
2018-09-10T08:27:57.623Z,70.10
2018-09-10T08:30:27.004Z,69.50
2018-09-10T08:35:51.432Z,65.90
2018-09-10T08:38:30.841Z,61.30
2018-09-10T08:43:43.807Z,59.60
2018-09-10T08:46:16.626Z,59.80
2018-09-10T08:48:45.479Z,58.10
2018-09-10T08:51:14.466Z,58.40
2018-09-10T08:53:43.189Z,58.40
2018-09-10T08:56:12.984Z,58.80
2018-09-10T08:58:41.896Z,56.90
2018-09-10T09:01:11.868Z,57.10
2018-09-10T09:03:40.944Z,57.80
2018-09-10T09:11:03.038Z,57.30
2018-09-10T09:13:32.747Z,54.10
2018-09-10T09:16:12.800Z,52.30
2018-09-10T09:18:42.037Z,53.50
2018-09-10T09:21:11.176Z,51.00
2018-09-10T10:01:40.108Z,50.00
2018-09-10T10:04:26.908Z,47.90
2018-09-10T10:16:04.421Z,46.90
2018-09-10T10:18:37.500Z,46.90
2018-09-10T10:24:33.232Z,46.70
2018-09-10T10:27:25.652Z,45.10
2018-09-10T10:29:57.330Z,46.00
2018-09-10T10:32:28.201Z,45.80
2018-09-10T10:34:57.213Z,45.30
2018-09-10T10:37:26.092Z,42.20
2018-09-10T10:39:57.602Z,43.20
2018-09-10T10:42:27.893Z,41.00
2018-09-10T10:45:21.086Z,41.50
2018-09-10T10:53:42.307Z,40.00
2018-09-10T10:59:38.896Z,40.70
2018-09-10T11:04:49.360Z,39.90
2018-09-10T11:07:28.041Z,40.60
2018-09-10T11:12:43.658Z,38.70
2018-09-10T11:15:12.704Z,41.00
2018-09-10T11:17:43.121Z,40.60
2018-09-10T11:20:14.158Z,40.90
2018-09-10T11:22:50.751Z,40.50
2018-09-10T11:25:25.149Z,42.10
2018-09-10T11:27:59.708Z,38.70
2018-09-10T11:30:29.669Z,38.20
2018-09-10T11:33:15.144Z,41.70
2018-09-10T11:35:47.081Z,41.30
2018-09-10T11:38:16.901Z,38.00
2018-09-10T11:44:17.089Z,41.40
2018-09-10T11:54:04.661Z,43.10
2018-09-10T11:57:12.369Z,41.80
2018-09-10T12:13:05.201Z,40.40
2018-09-10T12:46:58.671Z,44.20
2018-09-10T13:08:13.194Z,47.30
2018-09-10T13:31:43.577Z,47.70
2018-09-10T13:34:24.958Z,50.70
2018-09-10T13:45:08.181Z,51.10
2018-09-10T13:56:03.214Z,45.10
2018-09-10T13:58:35.102Z,46.50
2018-09-10T14:03:46.908Z,44.60
2018-09-10T14:09:33.127Z,40.00
2018-09-10T14:29:07.354Z,45.20
2018-09-10T14:34:36.647Z,45.40
2018-09-10T14:37:06.024Z,43.10
2018-09-10T14:39:52.889Z,44.50
2018-09-10T14:50:33.208Z,43.90
2018-09-10T14:56:13.456Z,42.50
2018-09-10T15:06:51.528Z,41.30
2018-09-10T15:09:24.061Z,43.80
2018-09-10T15:17:39.833Z,53.70
2018-09-10T15:20:10.348Z,53.50
2018-09-10T15:22:41.252Z,51.10
2018-09-10T15:25:13.407Z,49.90
2018-09-10T15:27:43.797Z,53.60
2018-09-10T15:30:13.509Z,50.70
2018-09-10T15:32:43.113Z,52.70
2018-09-10T15:40:00.337Z,54.20
2018-09-10T15:42:32.225Z,51.90
2018-09-10T15:45:18.591Z,48.80
2018-09-10T15:47:48.711Z,47.20
2018-09-10T15:50:21.315Z,47.40
2018-09-10T15:52:51.740Z,51.90
2018-09-10T15:55:22.074Z,53.10
2018-09-10T16:14:31.010Z,48.60
2018-09-10T16:17:00.904Z,49.20
2018-09-10T16:22:31.782Z,50.50
2018-09-10T16:25:02.177Z,51.20
2018-09-10T16:27:32.899Z,52.00
2018-09-10T16:30:02.753Z,52.80
2018-09-10T16:32:31.950Z,54.10
2018-09-10T16:35:05.232Z,54.70
2018-09-10T16:37:45.809Z,54.20
2018-09-10T16:40:15.484Z,55.20
2018-09-10T16:42:45.126Z,56.40
2018-09-10T16:45:42.597Z,55.70
2018-09-10T16:48:11.190Z,57.80
2018-09-10T16:53:17.286Z,59.40
2018-09-10T16:55:50.195Z,58.30
2018-09-10T16:58:21.091Z,59.40
2018-09-10T17:01:00.507Z,58.40
2018-09-10T17:03:30.319Z,58.20
2018-09-10T17:05:59.796Z,60.80
2018-09-10T17:08:36.803Z,62.00
2018-09-10T17:11:06.211Z,62.30
2018-09-10T17:13:49.024Z,64.30
2018-09-10T17:16:19.265Z,60.70
2018-09-10T17:18:55.180Z,64.30
2018-09-10T17:21:24.605Z,65.30
2018-09-10T17:23:56.055Z,65.80
2018-09-10T17:26:25.307Z,64.40
2018-09-10T17:28:55.771Z,65.30
2018-09-10T17:31:25.697Z,66.90
2018-09-10T17:33:55.715Z,66.00
2018-09-10T17:36:30.591Z,66.50
2018-09-10T17:39:01.811Z,65.80
2018-09-10T17:41:32.011Z,63.90
2018-09-10T17:44:15.013Z,67.40
2018-09-10T17:46:50.024Z,68.20
2018-09-10T17:49:19.471Z,69.70
2018-09-10T17:51:49.080Z,70.80
2018-09-10T17:54:19.766Z,70.50
2018-09-10T17:56:49.235Z,69.70
2018-09-10T17:59:18.826Z,71.40
2018-09-10T18:01:48.433Z,72.30
2018-09-10T18:04:17.469Z,74.20
2018-09-10T18:06:46.630Z,75.30
2018-09-10T18:09:16.340Z,77.90
2018-09-10T18:11:50.937Z,76.70
2018-09-10T18:14:20.696Z,76.70
2018-09-10T18:16:53.038Z,77.30
2018-09-10T18:19:21.709Z,78.60
2018-09-10T18:21:50.380Z,80.50
2018-09-10T18:24:19.029Z,80.60
2018-09-10T18:26:48.236Z,81.70
2018-09-10T18:29:19.082Z,84.60
2018-09-10T18:31:48.774Z,85.90
2018-09-10T18:34:17.602Z,85.00
2018-09-10T18:36:49.108Z,84.60
2018-09-10T18:39:18.437Z,84.80
2018-09-10T18:41:46.961Z,84.40
2018-09-10T18:44:15.539Z,86.20
2018-09-10T18:46:44.045Z,88.40
2018-09-10T18:49:12.696Z,87.80
2018-09-10T18:51:41.284Z,86.60
2018-09-10T18:54:09.944Z,84.40
2018-09-10T18:56:38.559Z,83.30
2018-09-10T18:59:07.161Z,81.70
2018-09-10T19:01:36.047Z,81.20
2018-09-10T19:04:05.997Z,80.90
2018-09-10T19:06:35.355Z,82.70
2018-09-10T19:09:05.861Z,82.40
2018-09-10T19:11:34.499Z,81.10
2018-09-10T19:14:03.138Z,79.30
2018-09-10T19:16:31.737Z,79.40
2018-09-10T19:19:15.324Z,79.20
2018-09-10T19:21:46.400Z,79.40
2018-09-10T19:24:15.317Z,78.70
2018-09-10T19:26:44.540Z,78.70
2018-09-10T19:29:14.368Z,78.80
2018-09-10T19:31:44.383Z,79.00
2018-09-10T19:34:13.202Z,78.10
2018-09-10T19:39:25.439Z,79.70
2018-09-10T19:41:54.763Z,78.80
2018-09-10T19:44:23.504Z,78.90
2018-09-10T19:46:53.156Z,79.20
2018-09-10T19:49:22.975Z,80.30
2018-09-10T19:51:52.063Z,81.80
2018-09-10T19:54:21.858Z,82.00
2018-09-10T19:59:57.281Z,82.80
2018-09-10T20:02:27.356Z,85.30
2018-09-10T20:04:57.049Z,84.50
2018-09-10T20:07:26.244Z,83.00
2018-09-10T20:09:55.630Z,84.30
2018-09-10T20:12:25.027Z,84.50
2018-09-10T20:14:55.373Z,86.70
2018-09-10T20:17:35.556Z,85.30
2018-09-10T20:20:06.969Z,85.80
2018-09-10T20:22:35.864Z,84.10
2018-09-10T20:27:49.117Z,84.40
2018-09-10T20:30:18.495Z,89.30
2018-09-10T20:32:47.616Z,88.40
2018-09-10T20:35:16.581Z,88.00
2018-09-10T20:37:45.734Z,89.00
2018-09-10T20:40:14.261Z,89.90
2018-09-10T20:42:43.896Z,90.60
2018-09-10T20:45:13.929Z,91.10
2018-09-10T20:47:43.445Z,91.50
2018-09-10T20:50:12.987Z,92.40
2018-09-10T20:52:42.462Z,92.40
2018-09-10T20:55:12.179Z,92.60
2018-09-10T20:57:41.559Z,92.70
2018-09-10T21:00:11.555Z,93.50
2018-09-10T21:02:41.189Z,94.10
2018-09-10T21:05:10.770Z,95.20
2018-09-10T21:07:40.778Z,96.20
2018-09-10T21:10:10.433Z,97.00
2018-09-10T21:12:39.263Z,97.40
2018-09-10T21:15:09.366Z,97.90
2018-09-10T21:17:39.398Z,99.10
2018-09-10T21:20:08.819Z,99.90
2018-09-10T21:22:38.301Z,99.90
2018-09-10T21:25:07.107Z,99.90
2018-09-10T21:27:36.835Z,99.90
2018-09-10T21:30:07.148Z,99.90
2018-09-10T21:32:36.615Z,99.90
2018-09-10T21:35:06.471Z,99.90
2018-09-10T21:37:35.429Z,99.90
2018-09-10T21:40:04.977Z,99.90
2018-09-10T21:42:34.217Z,99.90
2018-09-10T21:45:03.251Z,99.90
2018-09-10T21:47:31.828Z,99.90
2018-09-10T21:50:01.819Z,99.90
2018-09-10T21:52:31.246Z,99.90
2018-09-10T21:55:01.827Z,99.90
2018-09-10T21:57:31.084Z,99.90
2018-09-10T22:00:00.620Z,99.90
2018-09-10T22:02:30.280Z,99.90
2018-09-10T22:04:59.497Z,99.90
2018-09-10T22:07:28.727Z,99.90
2018-09-10T22:09:58.161Z,99.90
2018-09-10T22:12:28.488Z,99.90
2018-09-10T22:14:58.881Z,99.90
2018-09-10T22:17:28.721Z,99.90
2018-09-10T22:19:58.658Z,99.90
2018-09-10T22:22:28.817Z,99.90
2018-09-10T22:24:58.012Z,99.90
2018-09-10T22:27:26.795Z,99.90
2018-09-10T22:29:55.528Z,99.90
2018-09-10T22:32:24.380Z,99.90
2018-09-10T22:34:53.307Z,99.90
2018-09-10T22:37:26.187Z,99.90
2018-09-10T22:39:55.313Z,99.90
2018-09-10T22:42:24.950Z,99.90
2018-09-10T22:44:55.051Z,99.90
2018-09-10T22:47:25.837Z,99.90
2018-09-10T22:49:55.356Z,99.90
2018-09-10T22:52:27.317Z,99.90
2018-09-10T22:54:56.553Z,99.90
2018-09-10T22:57:25.708Z,99.90
2018-09-10T22:59:56.134Z,99.90
2018-09-10T23:02:25.347Z,99.90
2018-09-10T23:04:55.822Z,99.90
2018-09-10T23:07:28.080Z,99.90
2018-09-10T23:09:58.557Z,99.90
2018-09-10T23:12:28.497Z,99.90
2018-09-10T23:14:58.944Z,99.90
2018-09-10T23:17:29.450Z,99.90
2018-09-10T23:19:59.386Z,99.90
2018-09-10T23:22:29.010Z,99.90
2018-09-10T23:25:03.579Z,99.90
2018-09-10T23:27:33.856Z,99.90
2018-09-10T23:30:03.218Z,99.90
2018-09-10T23:32:32.729Z,99.90
2018-09-10T23:35:01.748Z,99.90
2018-09-10T23:37:31.062Z,99.90
2018-09-10T23:40:00.227Z,99.90
2018-09-10T23:42:32.924Z,99.90
2018-09-10T23:45:02.236Z,99.90
2018-09-10T23:47:31.399Z,99.90
2018-09-10T23:50:09.185Z,99.90
2018-09-10T23:52:38.121Z,99.90
2018-09-10T23:55:06.977Z,99.90
2018-09-10T23:57:35.692Z,99.90
